Bennett, NC (27208)

9:03 AM EST on February 10, 2016 (GMT -0500)
Coleridge | | Change Station
CLOSE
Current Station
Personal Weather Station
Location: Ramseur, NC
Elevation: 492 ft
Nearby Weather Stations

Elev 492 ft 35.68 °N, 79.62 °W | Updated 10 seconds ago

Clear
Clear
29.7 °F
Feels Like 23 °F
N
6.7
Wind Variable Wind from WNW
Gusts 7.4 mph

Today
High -- | Low -- °F
--% Chance of Precip.
Yesterday
High -- | Low -- °F
Precip. -- in
Pressure 29.96 in
Visibility 10.0 miles
Clouds Clear
Windchill 23 °F
Dew Point -0 °F
Humidity 27%
Rainfall 0.00 in
Snow Depth Not available.
7:10 AM 5:54 PM
Waxing Crescent, 5% visible
METAR KHBI 101355Z AUTO 25004KT 10SM CLR M03/M09 A2996 RMK AO2 T10311094
Pressure 29.96 in
Visibility 10.0 miles
Clouds Clear
Windchill 23 °F
Dew Point -0 °F
Humidity 27%
Rainfall 0.00 in
Snow Depth Not available.
7:10 AM 5:54 PM
Waxing Crescent, 5% visible
METAR KHBI 101355Z AUTO 25004KT 10SM CLR M03/M09 A2996 RMK AO2 T10311094

10-Day Weather Forecast

Almanac

Astronomy

Feb. 10, 2016 Rise Set
Actual Time
Civil Twilight
Nautical Twilight
Astronomical Twilight
Moon
Length of Visible Light
Length of Day
Tomorrow will be .
, % of the Moon is Illuminated

Today's Extremes

State Highs State Lows

Community

WunderPhotos

Upload Photos

1,891,846 photos uploaded!

WunderBlog® & News

Nearby

Air Quality

  Air Quality AQ Index Pollutant
Not available.

Snow Depth

Station Depth Elevation

Earthquake Activity

City Distance Mag. Time & Date
Minimum magnitude displayed is 2.5.

Coastal Water Temperatures

Place Temperature

Stations

Nearby Weather Stations

Station Location Temp. Windchill Dew Point Humidity Wind Precip. Elev Updated Type
                   

Watches & Warnings

There are currently no watches in effect.